createdAt,value
2019-02-23T00:01:17.098Z,102033.50
2019-02-23T00:03:47.598Z,102022.89
2019-02-23T00:06:28.924Z,102018.56
2019-02-23T00:08:50.298Z,102004.53
2019-02-23T00:11:23.479Z,102001.16
2019-02-23T00:13:54.090Z,102004.92
2019-02-23T00:16:25.930Z,102019.02
2019-02-23T00:18:58.249Z,102019.02
2019-02-23T00:21:28.658Z,102023.29
2019-02-23T00:23:58.828Z,102026.36
2019-02-23T00:26:29.154Z,102025.66
2019-02-23T00:29:02.365Z,102016.70
2019-02-23T00:31:32.677Z,102010.83
2019-02-23T00:34:03.305Z,102009.54
2019-02-23T00:36:33.557Z,102003.45
2019-02-23T00:39:05.023Z,101999.58
2019-02-23T00:41:35.435Z,102005.59
2019-02-23T00:44:05.775Z,102002.00
2019-02-23T00:46:36.593Z,102005.97
2019-02-23T00:49:07.260Z,102009.47
2019-02-23T00:51:37.916Z,102019.73
2019-02-23T00:54:08.343Z,102009.67
2019-02-23T00:56:38.833Z,102015.39
2019-02-23T00:59:09.276Z,102019.27
2019-02-23T01:01:39.668Z,102025.82
2019-02-23T01:04:10.519Z,102035.33
2019-02-23T01:06:40.986Z,102031.07
2019-02-23T01:09:11.688Z,102024.77
2019-02-23T01:11:42.135Z,101935.80
2019-02-23T01:14:13.123Z,102033.66
2019-02-23T01:16:43.837Z,102032.45
2019-02-23T01:19:14.690Z,102028.78
2019-02-23T01:21:45.130Z,102035.33
2019-02-23T01:24:15.569Z,102034.49
2019-02-23T01:26:46.218Z,102039.09
2019-02-23T01:29:16.525Z,102044.64
2019-02-23T01:31:48.955Z,102044.34
2019-02-23T01:34:20.731Z,102043.80
2019-02-23T01:36:51.093Z,102048.89
2019-02-23T01:39:22.811Z,102049.98
2019-02-23T01:41:56.794Z,102049.18
2019-02-23T01:44:27.723Z,102041.50
2019-02-23T01:46:58.092Z,102040.75
2019-02-23T01:49:28.562Z,102038.45
2019-02-23T01:51:59.472Z,102036.70
2019-02-23T01:54:30.110Z,102026.43
2019-02-23T01:57:01.149Z,102027.19
2019-02-23T01:59:31.431Z,102017.59
2019-02-23T02:02:01.759Z,102009.37
2019-02-23T02:04:34.009Z,102001.31
2019-02-23T02:07:04.514Z,101998.73
2019-02-23T02:09:35.020Z,102007.33
2019-02-23T02:12:06.938Z,102011.84
2019-02-23T02:14:37.950Z,102020.27
2019-02-23T02:17:08.295Z,102030.83
2019-02-23T02:19:38.674Z,102024.91
2019-02-23T02:22:10.011Z,102011.05
2019-02-23T02:24:40.766Z,101984.30
2019-02-23T02:27:11.392Z,101981.63
2019-02-23T02:29:41.859Z,101979.66
2019-02-23T02:32:12.784Z,101974.23
2019-02-23T02:34:43.232Z,101973.13
2019-02-23T02:37:13.646Z,101971.55
2019-02-23T02:39:44.178Z,101975.05
2019-02-23T02:42:15.700Z,101975.42
2019-02-23T02:44:46.471Z,101983.09
2019-02-23T02:47:16.712Z,101984.17
2019-02-23T02:49:47.329Z,101975.13
2019-02-23T02:52:17.639Z,101911.55
2019-02-23T02:54:48.000Z,101948.02
2019-02-23T02:57:18.390Z,101951.98
2019-02-23T02:59:49.096Z,101950.31
2019-02-23T03:02:20.337Z,101938.68
2019-02-23T03:04:51.482Z,101939.52
2019-02-23T03:07:22.220Z,101928.72
2019-02-23T03:09:52.802Z,101924.39
2019-02-23T03:12:23.619Z,101929.55
2019-02-23T03:14:54.204Z,101924.39
2019-02-23T03:17:24.441Z,101925.77
2019-02-23T03:19:55.038Z,101929.27
2019-02-23T03:22:25.231Z,101924.47
2019-02-23T03:24:55.702Z,101925.47
2019-02-23T03:27:25.961Z,101927.80
2019-02-23T03:29:56.267Z,101921.80
2019-02-23T03:32:26.466Z,101922.80
2019-02-23T03:34:56.788Z,101921.41
2019-02-23T03:37:27.291Z,101920.77
2019-02-23T03:39:58.163Z,101919.48
2019-02-23T03:42:28.816Z,101904.44
2019-02-23T03:44:59.145Z,101908.22
2019-02-23T03:47:29.983Z,101916.72
2019-02-23T03:50:00.336Z,101916.34
2019-02-23T03:52:30.659Z,101918.47
2019-02-23T03:55:01.405Z,101912.01
2019-02-23T03:57:31.694Z,101903.69
2019-02-23T04:00:02.264Z,101900.47
2019-02-23T04:02:32.620Z,101812.61
2019-02-23T04:05:03.170Z,101889.02
2019-02-23T04:07:33.485Z,101887.73
2019-02-23T04:10:06.425Z,101884.43
2019-02-23T04:12:36.690Z,101883.14
2019-02-23T04:15:07.304Z,101796.95
2019-02-23T04:17:38.451Z,101884.97
2019-02-23T04:20:08.796Z,101882.84
2019-02-23T04:22:39.386Z,101883.02
2019-02-23T04:25:09.719Z,101881.84
2019-02-23T04:27:40.064Z,101879.70
2019-02-23T04:30:10.500Z,101877.59
2019-02-23T04:32:40.789Z,101881.55
2019-02-23T04:35:11.368Z,101874.37
2019-02-23T04:37:41.705Z,101880.33
2019-02-23T04:40:12.589Z,101884.20
2019-02-23T04:42:42.871Z,101875.17
2019-02-23T04:45:13.318Z,101881.28
2019-02-23T04:47:43.633Z,101889.48
2019-02-23T04:50:14.039Z,101886.23
2019-02-23T04:52:44.622Z,101888.64
2019-02-23T04:55:15.014Z,101802.80
2019-02-23T04:57:45.212Z,101900.08
2019-02-23T05:00:15.839Z,101899.41
2019-02-23T05:02:46.089Z,101900.99
2019-02-23T05:05:17.039Z,101899.48
2019-02-23T05:07:47.370Z,101893.41
2019-02-23T05:10:19.824Z,101899.48
2019-02-23T05:12:50.351Z,101887.17
2019-02-23T05:15:25.244Z,101899.72
2019-02-23T05:17:55.844Z,101895.92
2019-02-23T05:20:26.394Z,101895.63
2019-02-23T05:22:56.977Z,101891.05
2019-02-23T05:25:27.346Z,101899.23
2019-02-23T05:27:57.621Z,101894.87
2019-02-23T05:30:28.033Z,101901.98
2019-02-23T05:32:58.755Z,101894.31
2019-02-23T05:35:29.388Z,101888.77
2019-02-23T05:38:00.127Z,101884.52
2019-02-23T05:40:30.844Z,101880.28
2019-02-23T05:43:01.644Z,101882.52
2019-02-23T05:45:32.473Z,101888.21
2019-02-23T05:48:02.806Z,101802.63
2019-02-23T05:50:33.040Z,101891.76
2019-02-23T05:53:03.286Z,101800.47
2019-02-23T05:55:33.621Z,101894.72
2019-02-23T05:58:03.993Z,101897.45
2019-02-23T06:00:34.427Z,101891.20
2019-02-23T06:03:02.425Z,101901.03
2019-02-23T06:05:32.940Z,101899.39
2019-02-23T06:08:03.525Z,101897.27
2019-02-23T06:10:34.159Z,101899.55
2019-02-23T06:13:04.876Z,101810.36
2019-02-23T06:15:35.201Z,101916.32
2019-02-23T06:18:05.562Z,101923.68
2019-02-23T06:20:36.239Z,101925.13
2019-02-23T06:23:06.746Z,101929.17
2019-02-23T06:25:37.075Z,101929.33
2019-02-23T06:28:07.577Z,101935.95
2019-02-23T06:30:37.880Z,101933.53
2019-02-23T06:33:08.068Z,101937.78
2019-02-23T06:35:38.592Z,101945.33
2019-02-23T06:38:09.282Z,101954.73
2019-02-23T06:40:39.637Z,101953.67
2019-02-23T06:43:09.943Z,101953.95
2019-02-23T06:45:40.293Z,101962.83
2019-02-23T06:48:10.660Z,101966.05
2019-02-23T06:50:40.904Z,101975.84
2019-02-23T06:53:12.078Z,101977.41
2019-02-23T06:55:42.689Z,101992.88
2019-02-23T06:58:13.691Z,101992.28
2019-02-23T07:00:44.212Z,101999.71
2019-02-23T07:03:14.837Z,102000.16
2019-02-23T07:05:45.653Z,102004.38
2019-02-23T07:08:16.368Z,102002.48
2019-02-23T07:10:46.692Z,102007.53
2019-02-23T07:13:17.007Z,102006.69
2019-02-23T07:15:47.494Z,101997.44
2019-02-23T07:18:17.776Z,101999.00
2019-02-23T07:20:48.368Z,101998.59
2019-02-23T07:23:19.159Z,102002.87
2019-02-23T07:25:50.301Z,101998.55
2019-02-23T07:28:21.177Z,101999.39
2019-02-23T07:30:51.648Z,102009.59
2019-02-23T07:33:32.431Z,101922.16
2019-02-23T07:35:54.083Z,102022.70
2019-02-23T07:38:24.625Z,102030.63
2019-02-23T07:40:55.042Z,102045.66
2019-02-23T07:43:25.440Z,102037.95
2019-02-23T07:45:55.591Z,102026.44
2019-02-23T07:48:25.963Z,102028.22
2019-02-23T07:50:56.796Z,102044.92
2019-02-23T07:53:27.225Z,102036.83
2019-02-23T07:56:00.806Z,101947.73
2019-02-23T07:58:32.150Z,102034.55
2019-02-23T08:01:03.126Z,102033.16
2019-02-23T08:03:34.067Z,102039.64
2019-02-23T08:06:06.140Z,102042.06
2019-02-23T08:08:36.620Z,101955.23
2019-02-23T08:11:09.168Z,101959.22
2019-02-23T08:13:40.710Z,102053.27
2019-02-23T08:16:16.136Z,102058.91
2019-02-23T08:18:46.488Z,102071.47
2019-02-23T08:21:16.957Z,102063.17
2019-02-23T08:23:47.251Z,102066.03
2019-02-23T08:26:17.667Z,102083.69
2019-02-23T08:28:48.027Z,102092.82
2019-02-23T08:31:18.445Z,102069.17
2019-02-23T08:33:50.181Z,102085.71
2019-02-23T08:36:20.795Z,102081.55
2019-02-23T08:38:52.502Z,102083.12
2019-02-23T08:41:22.939Z,102082.38
2019-02-23T08:43:56.393Z,102093.19
2019-02-23T08:46:27.553Z,102094.95
2019-02-23T08:48:59.432Z,102096.12
2019-02-23T08:51:30.694Z,102092.23
2019-02-23T08:54:01.413Z,102082.95
2019-02-23T08:56:32.013Z,102008.83
2019-02-23T08:59:02.562Z,102082.55
2019-02-23T09:01:33.045Z,102069.36
2019-02-23T09:04:07.239Z,102058.64
2019-02-23T09:06:37.575Z,102065.69
2019-02-23T09:09:08.432Z,102062.13
2019-02-23T09:11:38.810Z,102057.06
2019-02-23T09:14:09.123Z,102045.35
2019-02-23T09:16:40.123Z,102015.06
2019-02-23T09:19:10.893Z,101994.31
2019-02-23T09:21:42.067Z,101997.88
2019-02-23T09:24:12.703Z,101998.86
2019-02-23T09:26:43.540Z,102001.11
2019-02-23T09:29:17.276Z,102018.09
2019-02-23T09:31:48.918Z,102024.73
2019-02-23T09:34:20.244Z,101956.03
2019-02-23T09:36:50.883Z,102030.72
2019-02-23T09:39:21.643Z,102021.83
2019-02-23T09:41:55.057Z,102016.42
2019-02-23T09:44:25.495Z,102023.88
2019-02-23T09:46:56.386Z,102014.84
2019-02-23T09:49:28.836Z,102013.02
2019-02-23T09:51:59.396Z,102017.05
2019-02-23T09:54:30.761Z,102007.26
2019-02-23T09:57:06.673Z,102014.98
2019-02-23T09:59:40.028Z,102013.11
2019-02-23T10:02:11.115Z,102016.30
2019-02-23T10:04:41.973Z,101930.51
2019-02-23T10:07:15.052Z,102013.70
2019-02-23T10:09:45.530Z,101962.67
2019-02-23T10:12:15.959Z,102014.08
2019-02-23T10:14:47.489Z,102006.42
2019-02-23T10:17:18.323Z,101993.90
2019-02-23T10:19:48.776Z,102001.59
2019-02-23T10:22:19.650Z,101996.50
2019-02-23T10:24:52.109Z,101983.41
2019-02-23T10:27:22.426Z,101975.00
2019-02-23T10:29:56.053Z,101965.98
2019-02-23T10:32:26.716Z,101951.78
2019-02-23T10:34:57.269Z,101943.11
2019-02-23T10:37:31.982Z,101938.33
2019-02-23T10:40:03.740Z,101950.16
2019-02-23T10:42:34.226Z,101801.91
2019-02-23T10:45:06.347Z,101854.71
2019-02-23T10:47:36.828Z,101918.55
2019-02-23T10:50:11.255Z,101918.93
2019-02-23T10:52:42.390Z,101905.88
2019-02-23T10:55:13.778Z,101915.49
2019-02-23T10:57:45.273Z,101918.07
2019-02-23T11:00:19.577Z,101836.31
2019-02-23T11:02:50.715Z,101897.77
2019-02-23T11:05:21.974Z,101889.86
2019-02-23T11:07:52.299Z,101883.73
2019-02-23T11:10:22.860Z,101885.09
2019-02-23T11:12:54.457Z,101885.83
2019-02-23T11:15:25.103Z,101884.98
2019-02-23T11:18:00.083Z,101887.77
2019-02-23T11:20:29.104Z,101885.05
2019-02-23T11:23:00.488Z,101882.19
2019-02-23T11:25:32.052Z,101889.30
2019-02-23T11:28:05.708Z,101884.61
2019-02-23T11:30:37.504Z,101889.23
2019-02-23T11:33:08.537Z,101876.50
2019-02-23T11:35:39.393Z,101885.15
2019-02-23T11:38:10.857Z,101869.59
2019-02-23T11:40:41.950Z,101869.59
2019-02-23T11:43:12.319Z,101858.23
2019-02-23T11:45:43.135Z,101858.23
2019-02-23T11:48:13.859Z,101858.42
2019-02-23T11:50:44.365Z,101849.88
2019-02-23T11:53:15.209Z,101849.80
2019-02-23T11:55:45.607Z,101846.57
2019-02-23T11:58:16.022Z,101827.80
2019-02-23T12:00:46.698Z,101737.49
2019-02-23T12:03:17.047Z,101824.47
2019-02-23T12:05:47.516Z,101829.49
2019-02-23T12:08:18.128Z,101814.48
2019-02-23T12:10:48.489Z,101815.33
2019-02-23T12:13:19.023Z,101819.48
2019-02-23T12:15:49.423Z,101811.05
2019-02-23T12:18:19.713Z,101801.89
2019-02-23T12:20:50.093Z,101807.33
2019-02-23T12:23:20.850Z,101806.23
2019-02-23T12:25:54.163Z,101809.09
2019-02-23T12:28:25.567Z,101809.91
2019-02-23T12:30:57.254Z,101812.88
2019-02-23T12:33:27.595Z,101807.59
2019-02-23T12:35:59.009Z,101808.08
2019-02-23T12:38:34.296Z,101807.58
2019-02-23T12:41:06.168Z,101805.39
2019-02-23T12:43:37.284Z,101812.88
2019-02-23T12:46:08.811Z,101734.56
2019-02-23T12:48:39.274Z,101804.94
2019-02-23T12:51:12.983Z,101803.28
2019-02-23T12:53:43.342Z,101793.27
2019-02-23T12:56:14.503Z,101787.06
2019-02-23T12:58:45.532Z,101786.14
2019-02-23T13:01:19.043Z,101772.86
2019-02-23T13:03:49.488Z,101765.44
2019-02-23T13:06:20.934Z,101751.53
2019-02-23T13:09:20.200Z,101751.73
2019-02-23T13:12:04.563Z,101752.25
2019-02-23T13:14:45.938Z,101749.96
2019-02-23T13:17:26.041Z,101749.81
2019-02-23T13:20:41.975Z,101741.63
2019-02-23T13:23:40.372Z,101742.45
2019-02-23T13:26:32.987Z,101739.49
2019-02-23T13:29:39.361Z,101750.67
2019-02-23T13:32:45.315Z,101749.66
2019-02-23T13:35:46.358Z,101600.29
2019-02-23T13:39:03.701Z,101673.12
2019-02-23T13:41:48.151Z,101734.94
2019-02-23T13:44:57.995Z,101737.58
2019-02-23T13:48:04.009Z,101734.32
2019-02-23T13:51:11.932Z,101730.06
2019-02-23T13:54:11.596Z,101738.75
2019-02-23T13:57:34.896Z,101734.16
2019-02-23T14:01:01.829Z,101737.30
2019-02-23T14:04:20.367Z,101736.94
2019-02-23T14:07:10.958Z,101738.93
2019-02-23T14:10:18.589Z,101744.16
2019-02-23T14:13:28.484Z,101739.06
2019-02-23T14:16:43.738Z,101740.53
2019-02-23T14:19:41.676Z,101742.67
2019-02-23T14:22:52.472Z,101729.84
2019-02-23T14:25:50.599Z,101726.71
2019-02-23T14:29:02.455Z,101738.71
2019-02-23T14:32:00.536Z,101732.81
2019-02-23T14:34:51.797Z,101744.45
2019-02-23T14:38:03.537Z,101747.11
2019-02-23T14:41:20.564Z,101739.38
2019-02-23T14:44:25.007Z,101750.38
2019-02-23T14:47:42.324Z,101755.61
2019-02-23T14:50:39.675Z,101767.41
2019-02-23T14:53:56.448Z,101765.86
2019-02-23T14:56:51.981Z,101762.52
2019-02-23T14:59:51.360Z,101765.77
2019-02-23T15:02:58.039Z,101766.88
2019-02-23T15:05:52.524Z,101772.61
2019-02-23T15:09:08.697Z,101769.77
2019-02-23T15:12:02.537Z,101771.38
2019-02-23T15:15:11.608Z,101770.06
2019-02-23T15:18:00.063Z,101773.87
2019-02-23T15:20:56.674Z,101763.70
2019-02-23T15:24:12.101Z,101689.50
2019-02-23T15:27:40.263Z,101756.03
2019-02-23T15:30:33.247Z,101756.33
2019-02-23T15:33:39.131Z,101748.58
2019-02-23T15:37:00.731Z,101747.41
2019-02-23T15:39:53.500Z,101749.84
2019-02-23T15:43:19.200Z,101742.23
2019-02-23T15:46:19.698Z,101743.48
2019-02-23T15:49:26.420Z,101740.17
2019-02-23T15:51:57.330Z,101732.07
2019-02-23T15:54:29.297Z,101730.66
2019-02-23T15:57:00.405Z,101731.59
2019-02-23T15:59:32.030Z,101726.94
2019-02-23T16:02:02.949Z,101649.02
2019-02-23T16:04:33.382Z,101727.61
2019-02-23T16:07:07.291Z,101727.38
2019-02-23T16:09:38.710Z,101722.86
2019-02-23T16:12:09.263Z,101725.91
2019-02-23T16:14:40.393Z,101733.53
2019-02-23T16:17:11.284Z,101728.75
2019-02-23T16:19:42.328Z,101731.89
2019-02-23T16:22:10.469Z,101724.80
2019-02-23T16:24:40.891Z,101728.34
2019-02-23T16:27:11.247Z,101731.00
2019-02-23T16:29:42.002Z,101728.10
2019-02-23T16:32:12.935Z,101731.19
2019-02-23T16:34:43.803Z,101733.38
2019-02-23T16:37:14.838Z,101746.25
2019-02-23T16:39:45.452Z,101746.25
2019-02-23T16:42:17.088Z,101738.71
2019-02-23T16:44:47.803Z,101749.11
2019-02-23T16:47:18.257Z,101749.11
2019-02-23T16:49:49.566Z,101749.75
2019-02-23T16:52:21.016Z,101749.27
2019-02-23T16:54:52.736Z,101749.27
2019-02-23T16:57:23.600Z,101762.67
2019-02-23T16:59:55.032Z,101762.67
2019-02-23T17:02:30.650Z,101739.98
2019-02-23T17:05:02.859Z,101732.57
2019-02-23T17:07:33.639Z,101731.30
2019-02-23T17:10:08.506Z,101731.30
2019-02-23T17:12:38.948Z,101753.13
2019-02-23T17:15:10.645Z,101747.30
2019-02-23T17:17:41.327Z,101662.52
2019-02-23T17:20:12.086Z,101751.45
2019-02-23T17:22:42.782Z,101757.80
2019-02-23T17:25:14.099Z,101757.97
2019-02-23T17:27:44.869Z,101763.16
2019-02-23T17:30:15.355Z,101758.95
2019-02-23T17:32:45.969Z,101763.26
2019-02-23T17:35:16.788Z,101759.04
2019-02-23T17:37:47.737Z,101757.30
2019-02-23T17:40:19.121Z,101761.61
2019-02-23T17:42:49.570Z,101757.71
2019-02-23T17:45:20.958Z,101758.58
2019-02-23T17:47:51.498Z,101766.91
2019-02-23T17:50:24.668Z,101770.03
2019-02-23T17:52:59.424Z,101765.20
2019-02-23T17:55:30.382Z,101759.91
2019-02-23T17:58:01.116Z,101756.88
2019-02-23T18:00:31.783Z,101752.37
2019-02-23T18:03:02.263Z,101753.59
2019-02-23T18:05:33.607Z,101741.43
2019-02-23T18:08:04.475Z,101737.32
2019-02-23T18:10:36.421Z,101732.86
2019-02-23T18:13:07.515Z,101732.14
2019-02-23T18:15:39.936Z,101724.60
2019-02-23T18:18:10.407Z,101725.66
2019-02-23T18:20:41.187Z,101728.17
2019-02-23T18:23:11.809Z,101736.81
2019-02-23T18:25:43.418Z,101739.56
2019-02-23T18:28:14.489Z,101735.20
2019-02-23T18:30:45.100Z,101732.01
2019-02-23T18:33:16.532Z,101732.95
2019-02-23T18:35:51.415Z,101728.95
2019-02-23T18:38:22.865Z,101728.50
2019-02-23T18:40:54.658Z,101724.84
2019-02-23T18:43:25.151Z,101722.02
2019-02-23T18:45:56.278Z,101716.84
2019-02-23T18:48:28.330Z,101723.93
2019-02-23T18:50:58.709Z,101725.95
2019-02-23T18:53:33.016Z,101730.31
2019-02-23T18:56:04.847Z,101730.44
2019-02-23T18:58:38.570Z,101733.51
2019-02-23T19:01:09.718Z,101735.06
2019-02-23T19:03:41.440Z,101745.70
2019-02-23T19:06:18.499Z,101748.56
2019-02-23T19:08:50.443Z,101744.88
2019-02-23T19:11:31.172Z,101652.70
2019-02-23T19:14:04.761Z,101751.98
2019-02-23T19:16:40.580Z,101748.83
2019-02-23T19:19:11.894Z,101752.48
2019-02-23T19:21:44.607Z,101749.55
2019-02-23T19:24:16.565Z,101742.91
2019-02-23T19:26:47.968Z,101737.97
2019-02-23T19:29:19.530Z,101733.47
2019-02-23T19:31:51.528Z,101730.18
2019-02-23T19:34:22.960Z,101631.84
2019-02-23T19:36:55.175Z,101743.66
2019-02-23T19:39:25.702Z,101731.50
2019-02-23T19:41:56.381Z,101731.25
2019-02-23T19:44:26.792Z,101732.66
2019-02-23T19:47:02.728Z,101732.80
2019-02-23T19:49:33.456Z,101741.64
2019-02-23T19:52:07.192Z,101739.63
2019-02-23T19:54:38.026Z,101740.56
2019-02-23T19:57:08.939Z,101735.52
2019-02-23T19:59:40.507Z,101735.05
2019-02-23T20:02:12.078Z,101741.64
2019-02-23T20:04:43.053Z,101749.55
2019-02-23T20:07:13.649Z,101749.19
2019-02-23T20:09:44.573Z,101748.61
2019-02-23T20:12:17.360Z,101750.84
2019-02-23T20:14:50.717Z,101741.97
2019-02-23T20:17:22.220Z,101736.77
2019-02-23T20:19:52.847Z,101741.03
2019-02-23T20:22:24.635Z,101735.72
2019-02-23T20:24:55.469Z,101737.48
2019-02-23T20:27:26.100Z,101725.53
2019-02-23T20:29:56.641Z,101727.83
2019-02-23T20:32:28.746Z,101728.53
2019-02-23T20:34:59.204Z,101731.25
2019-02-23T20:37:29.892Z,101731.25
2019-02-23T20:40:01.337Z,101736.08
2019-02-23T20:42:32.779Z,101732.06
2019-02-23T20:45:03.588Z,101734.44
2019-02-23T20:47:34.465Z,101742.79
2019-02-23T20:50:05.907Z,101740.91
2019-02-23T20:52:38.975Z,101739.36
2019-02-23T20:55:09.767Z,101747.25
2019-02-23T20:57:41.138Z,101739.00
2019-02-23T21:00:14.864Z,101743.13
2019-02-23T21:02:46.448Z,101744.74
2019-02-23T21:05:17.289Z,101756.92
2019-02-23T21:07:47.777Z,101747.12
2019-02-23T21:10:18.589Z,101749.26
2019-02-23T21:12:49.257Z,101752.42
2019-02-23T21:15:19.677Z,101753.98
2019-02-23T21:17:50.556Z,101752.58
2019-02-23T21:20:21.354Z,101747.72
2019-02-23T21:22:51.753Z,101744.44
2019-02-23T21:25:22.499Z,101747.23
2019-02-23T21:27:54.571Z,101745.33
2019-02-23T21:30:25.522Z,101739.98
2019-02-23T21:32:56.026Z,101727.59
2019-02-23T21:35:26.740Z,101720.48
2019-02-23T21:37:57.265Z,101718.25
2019-02-23T21:40:28.048Z,101713.89
2019-02-23T21:42:59.140Z,101709.05
2019-02-23T21:45:30.112Z,101709.16
2019-02-23T21:48:01.773Z,101716.67
2019-02-23T21:50:32.548Z,101708.79
2019-02-23T21:53:04.028Z,101711.75
2019-02-23T21:55:34.460Z,101708.69
2019-02-23T21:58:05.542Z,101719.62
2019-02-23T22:00:37.110Z,101716.55
2019-02-23T22:03:08.176Z,101721.37
2019-02-23T22:05:38.877Z,101721.44
2019-02-23T22:08:09.566Z,101728.39
2019-02-23T22:10:40.158Z,101727.40
2019-02-23T22:13:11.326Z,101726.08
2019-02-23T22:15:41.809Z,101727.14
2019-02-23T22:18:13.025Z,101725.08
2019-02-23T22:20:45.372Z,101727.67
2019-02-23T22:23:15.980Z,101724.58
2019-02-23T22:25:46.786Z,101721.89
2019-02-23T22:28:18.291Z,101720.80
2019-02-23T22:30:49.868Z,101721.95
2019-02-23T22:33:21.225Z,101712.02
2019-02-23T22:35:52.010Z,101716.77
2019-02-23T22:38:22.609Z,101716.91
2019-02-23T22:40:54.989Z,101717.37
2019-02-23T22:43:25.728Z,101627.84
2019-02-23T22:45:56.944Z,101722.15
2019-02-23T22:48:28.018Z,101725.53
2019-02-23T22:50:58.815Z,101727.16
2019-02-23T22:53:29.543Z,101732.70
2019-02-23T22:56:00.839Z,101732.11
2019-02-23T22:58:31.502Z,101733.91
2019-02-23T23:01:04.197Z,101733.81
2019-02-23T23:03:37.076Z,101736.50
2019-02-23T23:06:08.149Z,101735.56
2019-02-23T23:08:38.575Z,101737.19
2019-02-23T23:11:09.808Z,101741.45
2019-02-23T23:13:40.557Z,101734.87
2019-02-23T23:16:11.676Z,101738.16
2019-02-23T23:18:42.447Z,101731.31
2019-02-23T23:21:12.975Z,101727.76
2019-02-23T23:23:42.227Z,101720.31
2019-02-23T23:26:12.735Z,101719.12
2019-02-23T23:28:46.558Z,101717.59
2019-02-23T23:31:18.522Z,101715.19
2019-02-23T23:33:50.077Z,101717.31
2019-02-23T23:36:21.438Z,101720.00
2019-02-23T23:38:52.839Z,101715.05
2019-02-23T23:41:23.888Z,101712.47
2019-02-23T23:43:54.519Z,101721.99
2019-02-23T23:46:26.614Z,101721.99
2019-02-23T23:48:59.141Z,101725.98
2019-02-23T23:51:30.532Z,101723.02
2019-02-23T23:54:01.292Z,101723.02
2019-02-23T23:56:32.804Z,101720.75
2019-02-23T23:59:04.037Z,101719.22
